sensor_id;sensor_type;location;lat;lon;timestamp;pressure;altitude;pressure_sealevel;temperature;humidity
42125;BME280;27787;44.594;11.046;2022-08-21T00:02:01;100592.38;;;23.82;66.84
42125;BME280;27787;44.594;11.046;2022-08-21T00:04:45;100589.75;;;23.80;67.12
42125;BME280;27787;44.594;11.046;2022-08-21T00:07:29;100587.22;;;23.77;67.65
42125;BME280;27787;44.594;11.046;2022-08-21T00:10:13;100585.81;;;23.70;67.51
42125;BME280;27787;44.594;11.046;2022-08-21T00:12:59;100591.47;;;23.64;67.62
42125;BME280;27787;44.594;11.046;2022-08-21T00:15:43;100592.72;;;23.57;66.68
42125;BME280;27787;44.594;11.046;2022-08-21T00:18:28;100605.34;;;23.55;66.71
42125;BME280;27787;44.594;11.046;2022-08-21T00:21:13;100610.66;;;23.57;66.34
42125;BME280;27787;44.594;11.046;2022-08-21T00:23:57;100611.69;;;23.54;67.41
42125;BME280;27787;44.594;11.046;2022-08-21T00:26:41;100606.63;;;23.48;68.26
42125;BME280;27787;44.594;11.046;2022-08-21T00:29:27;100609.47;;;23.45;69.17
42125;BME280;27787;44.594;11.046;2022-08-21T00:32:11;100609.84;;;23.37;68.70
42125;BME280;27787;44.594;11.046;2022-08-21T00:34:55;100600.50;;;23.25;69.18
42125;BME280;27787;44.594;11.046;2022-08-21T00:37:39;100602.69;;;23.17;68.82
42125;BME280;27787;44.594;11.046;2022-08-21T00:40:28;100592.06;;;23.14;69.07
42125;BME280;27787;44.594;11.046;2022-08-21T00:43:15;100594.56;;;23.19;69.62
42125;BME280;27787;44.594;11.046;2022-08-21T00:45:59;100590.69;;;23.24;68.25
42125;BME280;27787;44.594;11.046;2022-08-21T00:48:44;100593.38;;;23.24;66.84
42125;BME280;27787;44.594;11.046;2022-08-21T00:51:30;100597.09;;;23.22;66.96
42125;BME280;27787;44.594;11.046;2022-08-21T00:54:16;100596.06;;;23.24;66.79
42125;BME280;27787;44.594;11.046;2022-08-21T00:57:04;100595.84;;;23.29;67.26
42125;BME280;27787;44.594;11.046;2022-08-21T00:59:49;100590.75;;;23.23;66.56
42125;BME280;27787;44.594;11.046;2022-08-21T01:02:34;100583.03;;;23.15;67.14
42125;BME280;27787;44.594;11.046;2022-08-21T01:05:18;100586.69;;;23.14;67.87
42125;BME280;27787;44.594;11.046;2022-08-21T01:08:02;100591.91;;;23.17;68.57
42125;BME280;27787;44.594;11.046;2022-08-21T01:10:46;100590.53;;;23.09;69.17
42125;BME280;27787;44.594;11.046;2022-08-21T01:16:15;100590.53;;;23.09;69.58
42125;BME280;27787;44.594;11.046;2022-08-21T01:19:00;100593.25;;;23.09;70.26
42125;BME280;27787;44.594;11.046;2022-08-21T01:21:44;100586.81;;;23.11;70.48
42125;BME280;27787;44.594;11.046;2022-08-21T01:24:29;100588.22;;;23.20;69.86
42125;BME280;27787;44.594;11.046;2022-08-21T01:27:15;100591.00;;;23.18;69.54
42125;BME280;27787;44.594;11.046;2022-08-21T01:30:02;100588.31;;;23.18;69.78
42125;BME280;27787;44.594;11.046;2022-08-21T01:32:51;100586.25;;;23.23;69.42
42125;BME280;27787;44.594;11.046;2022-08-21T01:35:36;100583.19;;;23.31;69.10
42125;BME280;27787;44.594;11.046;2022-08-21T01:38:21;100586.75;;;23.32;68.77
42125;BME280;27787;44.594;11.046;2022-08-21T01:41:04;100576.00;;;23.32;68.49
42125;BME280;27787;44.594;11.046;2022-08-21T01:43:49;100578.69;;;23.32;68.29
42125;BME280;27787;44.594;11.046;2022-08-21T01:46:33;100572.63;;;23.27;68.95
42125;BME280;27787;44.594;11.046;2022-08-21T01:49:18;100580.00;;;23.23;69.03
42125;BME280;27787;44.594;11.046;2022-08-21T01:52:02;100572.84;;;23.22;69.06
42125;BME280;27787;44.594;11.046;2022-08-21T01:54:47;100575.47;;;23.23;69.03
42125;BME280;27787;44.594;11.046;2022-08-21T01:57:31;100578.00;;;23.27;68.81
42125;BME280;27787;44.594;11.046;2022-08-21T02:00:17;100583.41;;;23.27;69.31
42125;BME280;27787;44.594;11.046;2022-08-21T02:03:01;100582.59;;;23.24;69.87
42125;BME280;27787;44.594;11.046;2022-08-21T02:05:45;100582.84;;;23.20;69.82
42125;BME280;27787;44.594;11.046;2022-08-21T02:08:29;100581.28;;;23.14;70.72
42125;BME280;27787;44.594;11.046;2022-08-21T02:11:13;100581.28;;;23.14;69.97
42125;BME280;27787;44.594;11.046;2022-08-21T02:13:58;100569.50;;;23.17;69.65
42125;BME280;27787;44.594;11.046;2022-08-21T02:16:43;100561.28;;;23.20;68.98
42125;BME280;27787;44.594;11.046;2022-08-21T02:19:27;100564.97;;;23.17;68.82
42125;BME280;27787;44.594;11.046;2022-08-21T02:22:11;100573.22;;;23.14;69.33
42125;BME280;27787;44.594;11.046;2022-08-21T02:24:55;100565.94;;;23.16;68.68
42125;BME280;27787;44.594;11.046;2022-08-21T02:27:40;100567.63;;;23.19;68.30
42125;BME280;27787;44.594;11.046;2022-08-21T02:30:27;100560.34;;;23.21;67.84
42125;BME280;27787;44.594;11.046;2022-08-21T02:33:11;100553.28;;;23.18;67.32
42125;BME280;27787;44.594;11.046;2022-08-21T02:35:56;100558.78;;;23.15;67.58
42125;BME280;27787;44.594;11.046;2022-08-21T02:38:40;100561.63;;;23.12;67.83
42125;BME280;27787;44.594;11.046;2022-08-21T02:41:25;100563.63;;;23.09;68.01
42125;BME280;27787;44.594;11.046;2022-08-21T02:44:09;100555.81;;;23.03;67.87
42125;BME280;27787;44.594;11.046;2022-08-21T02:46:53;100562.16;;;23.02;68.04
42125;BME280;27787;44.594;11.046;2022-08-21T02:49:37;100565.88;;;22.99;67.58
42125;BME280;27787;44.594;11.046;2022-08-21T02:52:21;100562.59;;;22.92;68.06
42125;BME280;27787;44.594;11.046;2022-08-21T02:55:05;100559.94;;;22.91;67.89
42125;BME280;27787;44.594;11.046;2022-08-21T02:57:49;100565.28;;;22.92;68.41
42125;BME280;27787;44.594;11.046;2022-08-21T03:00:33;100565.22;;;22.94;68.41
42125;BME280;27787;44.594;11.046;2022-08-21T03:03:18;100564.13;;;22.98;67.94
42125;BME280;27787;44.594;11.046;2022-08-21T03:06:05;100569.34;;;23.01;67.91
42125;BME280;27787;44.594;11.046;2022-08-21T03:08:49;100564.84;;;23.02;68.08
42125;BME280;27787;44.594;11.046;2022-08-21T03:11:34;100570.22;;;23.02;68.21
42125;BME280;27787;44.594;11.046;2022-08-21T03:14:19;100567.84;;;22.95;68.32
42125;BME280;27787;44.594;11.046;2022-08-21T03:17:03;100566.22;;;22.91;68.81
42125;BME280;27787;44.594;11.046;2022-08-21T03:19:47;100559.16;;;22.89;68.61
42125;BME280;27787;44.594;11.046;2022-08-21T03:22:31;100567.38;;;22.86;68.37
42125;BME280;27787;44.594;11.046;2022-08-21T03:25:15;100557.94;;;22.76;69.23
42125;BME280;27787;44.594;11.046;2022-08-21T03:27:59;100553.66;;;22.72;69.03
42125;BME280;27787;44.594;11.046;2022-08-21T03:30:44;100559.19;;;22.69;68.69
42125;BME280;27787;44.594;11.046;2022-08-21T03:33:29;100554.88;;;22.64;68.57
42125;BME280;27787;44.594;11.046;2022-08-21T03:36:14;100555.16;;;22.58;69.24
42125;BME280;27787;44.594;11.046;2022-08-21T03:38:59;100547.31;;;22.54;70.04
42125;BME280;27787;44.594;11.046;2022-08-21T03:41:43;100551.81;;;22.53;70.52
42125;BME280;27787;44.594;11.046;2022-08-21T03:44:27;100548.19;;;22.54;71.15
42125;BME280;27787;44.594;11.046;2022-08-21T03:47:12;100547.25;;;22.55;70.85
42125;BME280;27787;44.594;11.046;2022-08-21T03:49:56;100547.03;;;22.40;71.21
42125;BME280;27787;44.594;11.046;2022-08-21T03:52:40;100554.75;;;22.28;71.96
42125;BME280;27787;44.594;11.046;2022-08-21T03:55:25;100547.66;;;22.26;72.87
42125;BME280;27787;44.594;11.046;2022-08-21T03:58:09;100551.84;;;22.33;72.83
42125;BME280;27787;44.594;11.046;2022-08-21T04:00:54;100550.75;;;22.37;71.86
42125;BME280;27787;44.594;11.046;2022-08-21T04:03:39;100547.25;;;22.35;72.44
42125;BME280;27787;44.594;11.046;2022-08-21T04:06:23;100555.47;;;22.32;72.65
42125;BME280;27787;44.594;11.046;2022-08-21T04:09:07;100546.78;;;22.25;73.64
42125;BME280;27787;44.594;11.046;2022-08-21T04:11:52;100547.72;;;22.24;73.49
42125;BME280;27787;44.594;11.046;2022-08-21T04:14:36;100548.22;;;22.14;73.97
42125;BME280;27787;44.594;11.046;2022-08-21T04:17:21;100555.00;;;22.00;75.26
42125;BME280;27787;44.594;11.046;2022-08-21T04:20:04;100551.00;;;21.90;75.52
42125;BME280;27787;44.594;11.046;2022-08-21T04:22:49;100551.38;;;21.81;76.33
42125;BME280;27787;44.594;11.046;2022-08-21T04:25:34;100560.50;;;21.77;77.03
42125;BME280;27787;44.594;11.046;2022-08-21T04:28:19;100556.47;;;21.67;77.03
42125;BME280;27787;44.594;11.046;2022-08-21T04:31:03;100556.69;;;21.61;77.23
42125;BME280;27787;44.594;11.046;2022-08-21T04:33:47;100559.38;;;21.61;77.31
42125;BME280;27787;44.594;11.046;2022-08-21T04:36:32;100568.28;;;21.63;77.63
42125;BME280;27787;44.594;11.046;2022-08-21T04:39:16;100572.66;;;21.65;77.70
42125;BME280;27787;44.594;11.046;2022-08-21T04:42:00;100570.91;;;21.64;78.02
42125;BME280;27787;44.594;11.046;2022-08-21T04:44:44;100574.59;;;21.62;77.73
42125;BME280;27787;44.594;11.046;2022-08-21T04:47:28;100569.25;;;21.60;78.92
42125;BME280;27787;44.594;11.046;2022-08-21T04:50:11;100574.63;;;21.60;78.67
42125;BME280;27787;44.594;11.046;2022-08-21T04:53:14;100573.59;;;21.64;79.07
42125;BME280;27787;44.594;11.046;2022-08-21T04:56:01;100577.69;;;21.73;78.43
42125;BME280;27787;44.594;11.046;2022-08-21T04:58:45;100580.94;;;21.81;77.25
42125;BME280;27787;44.594;11.046;2022-08-21T05:01:30;100585.50;;;21.79;77.36
42125;BME280;27787;44.594;11.046;2022-08-21T05:04:16;100586.44;;;21.78;77.86
42125;BME280;27787;44.594;11.046;2022-08-21T05:07:03;100593.75;;;21.74;77.56
42125;BME280;27787;44.594;11.046;2022-08-21T05:09:49;100581.06;;;21.78;77.74
42125;BME280;27787;44.594;11.046;2022-08-21T05:12:34;100584.44;;;21.83;77.08
42125;BME280;27787;44.594;11.046;2022-08-21T05:15:18;100581.75;;;21.83;76.77
42125;BME280;27787;44.594;11.046;2022-08-21T05:18:02;100586.19;;;21.84;77.30
42125;BME280;27787;44.594;11.046;2022-08-21T05:20:47;100584.34;;;21.85;77.53
42125;BME280;27787;44.594;11.046;2022-08-21T05:23:31;100581.38;;;21.92;77.03
42125;BME280;27787;44.594;11.046;2022-08-21T05:26:15;100589.03;;;22.01;75.89
42125;BME280;27787;44.594;11.046;2022-08-21T05:28:59;100589.97;;;22.00;75.05
42125;BME280;27787;44.594;11.046;2022-08-21T05:31:43;100597.13;;;22.01;74.75
42125;BME280;27787;44.594;11.046;2022-08-21T05:34:27;100590.72;;;22.04;73.93
42125;BME280;27787;44.594;11.046;2022-08-21T05:37:11;100593.25;;;22.08;73.45
42125;BME280;27787;44.594;11.046;2022-08-21T05:39:56;100603.75;;;22.15;73.31
42125;BME280;27787;44.594;11.046;2022-08-21T05:42:39;100596.34;;;22.20;73.15
42125;BME280;27787;44.594;11.046;2022-08-21T05:45:29;100597.94;;;22.24;72.77
42125;BME280;27787;44.594;11.046;2022-08-21T05:48:14;100598.81;;;22.24;72.27
42125;BME280;27787;44.594;11.046;2022-08-21T05:51:03;100599.50;;;22.29;71.46
42125;BME280;27787;44.594;11.046;2022-08-21T05:53:47;100592.03;;;22.36;70.50
42125;BME280;27787;44.594;11.046;2022-08-21T05:56:31;100595.28;;;22.44;70.44
42125;BME280;27787;44.594;11.046;2022-08-21T05:59:15;100602.94;;;22.53;69.07
42125;BME280;27787;44.594;11.046;2022-08-21T06:01:59;100611.66;;;22.58;69.34
42125;BME280;27787;44.594;11.046;2022-08-21T06:04:44;100610.66;;;22.61;69.69
42125;BME280;27787;44.594;11.046;2022-08-21T06:07:28;100610.78;;;22.58;69.42
42125;BME280;27787;44.594;11.046;2022-08-21T06:10:12;100615.44;;;22.54;67.55
42125;BME280;27787;44.594;11.046;2022-08-21T06:12:56;100616.41;;;22.53;67.32
42125;BME280;27787;44.594;11.046;2022-08-21T06:15:40;100608.38;;;22.52;67.46
42125;BME280;27787;44.594;11.046;2022-08-21T06:18:24;100609.38;;;22.49;66.76
42125;BME280;27787;44.594;11.046;2022-08-21T06:21:08;100602.94;;;22.53;67.29
42125;BME280;27787;44.594;11.046;2022-08-21T06:23:53;100608.84;;;22.61;67.51
42125;BME280;27787;44.594;11.046;2022-08-21T06:26:37;100612.22;;;22.66;67.52
42125;BME280;27787;44.594;11.046;2022-08-21T06:29:21;100606.69;;;22.70;68.21
42125;BME280;27787;44.594;11.046;2022-08-21T06:32:05;100609.22;;;22.73;68.51
42125;BME280;27787;44.594;11.046;2022-08-21T06:34:51;100606.31;;;22.77;68.53
42125;BME280;27787;44.594;11.046;2022-08-21T06:37:35;100610.84;;;22.77;68.29
42125;BME280;27787;44.594;11.046;2022-08-21T06:40:19;100600.81;;;22.80;68.83
42125;BME280;27787;44.594;11.046;2022-08-21T06:43:07;100593.19;;;22.90;69.41
42125;BME280;27787;44.594;11.046;2022-08-21T06:45:52;100600.88;;;22.99;69.25
42125;BME280;27787;44.594;11.046;2022-08-21T06:48:36;100595.22;;;23.05;67.87
42125;BME280;27787;44.594;11.046;2022-08-21T06:51:20;100594.13;;;23.09;66.98
42125;BME280;27787;44.594;11.046;2022-08-21T06:54:04;100598.56;;;23.10;66.15
42125;BME280;27787;44.594;11.046;2022-08-21T06:56:48;100602.69;;;23.17;66.40
42125;BME280;27787;44.594;11.046;2022-08-21T06:59:32;100603.50;;;23.19;66.60
42125;BME280;27787;44.594;11.046;2022-08-21T07:02:16;100601.69;;;23.20;66.37
42125;BME280;27787;44.594;11.046;2022-08-21T07:05:00;100607.63;;;23.27;66.64
42125;BME280;27787;44.594;11.046;2022-08-21T07:07:45;100608.44;;;23.29;65.75
42125;BME280;27787;44.594;11.046;2022-08-21T07:10:30;100608.25;;;23.33;65.11
42125;BME280;27787;44.594;11.046;2022-08-21T07:13:14;100601.50;;;23.42;65.16
42125;BME280;27787;44.594;11.046;2022-08-21T07:15:58;100605.03;;;23.44;64.30
42125;BME280;27787;44.594;11.046;2022-08-21T07:18:42;100605.81;;;23.46;64.04
42125;BME280;27787;44.594;11.046;2022-08-21T07:21:26;100611.53;;;23.59;61.85
42125;BME280;27787;44.594;11.046;2022-08-21T07:24:09;100609.53;;;23.62;61.45
42125;BME280;27787;44.594;11.046;2022-08-21T07:26:54;100612.09;;;23.65;61.01
42125;BME280;27787;44.594;11.046;2022-08-21T07:29:38;100605.53;;;23.71;61.61
42125;BME280;27787;44.594;11.046;2022-08-21T07:32:22;100606.16;;;23.76;61.31
42125;BME280;27787;44.594;11.046;2022-08-21T07:35:06;100610.38;;;23.81;60.95
42125;BME280;27787;44.594;11.046;2022-08-21T07:37:51;100611.97;;;23.86;60.12
42125;BME280;27787;44.594;11.046;2022-08-21T07:40:34;100612.44;;;23.94;60.67
42125;BME280;27787;44.594;11.046;2022-08-21T07:43:18;100608.69;;;23.98;60.99
42125;BME280;27787;44.594;11.046;2022-08-21T07:46:02;100611.03;;;24.04;60.38
42125;BME280;27787;44.594;11.046;2022-08-21T07:48:46;100608.84;;;24.12;60.29
42125;BME280;27787;44.594;11.046;2022-08-21T07:51:30;100610.59;;;24.13;60.17
42125;BME280;27787;44.594;11.046;2022-08-21T07:54:14;100605.97;;;24.15;59.63
42125;BME280;27787;44.594;11.046;2022-08-21T07:56:58;100600.91;;;24.26;60.57
42125;BME280;27787;44.594;11.046;2022-08-21T07:59:42;100600.75;;;24.29;59.97
42125;BME280;27787;44.594;11.046;2022-08-21T08:02:27;100600.53;;;24.34;59.69
42125;BME280;27787;44.594;11.046;2022-08-21T08:05:11;100614.09;;;24.32;57.87
42125;BME280;27787;44.594;11.046;2022-08-21T08:07:55;100611.97;;;24.39;57.33
42125;BME280;27787;44.594;11.046;2022-08-21T08:10:39;100599.50;;;24.54;56.73
42125;BME280;27787;44.594;11.046;2022-08-21T08:13:23;100607.56;;;24.71;56.81
42125;BME280;27787;44.594;11.046;2022-08-21T08:16:07;100614.13;;;24.83;56.94
42125;BME280;27787;44.594;11.046;2022-08-21T08:18:51;100601.31;;;24.86;56.55
42125;BME280;27787;44.594;11.046;2022-08-21T08:21:35;100600.31;;;24.89;57.43
42125;BME280;27787;44.594;11.046;2022-08-21T08:24:21;100595.00;;;24.87;57.68
42125;BME280;27787;44.594;11.046;2022-08-21T08:27:05;100588.63;;;24.88;56.91
42125;BME280;27787;44.594;11.046;2022-08-21T08:29:48;100588.78;;;24.85;57.08
42125;BME280;27787;44.594;11.046;2022-08-21T08:32:32;100593.94;;;24.90;57.71
42125;BME280;27787;44.594;11.046;2022-08-21T08:35:17;100591.22;;;25.07;57.18
42125;BME280;27787;44.594;11.046;2022-08-21T08:38:01;100582.78;;;25.13;56.47
42125;BME280;27787;44.594;11.046;2022-08-21T08:43:32;100583.19;;;25.21;57.03
42125;BME280;27787;44.594;11.046;2022-08-21T08:46:18;100581.56;;;25.19;57.28
42125;BME280;27787;44.594;11.046;2022-08-21T08:49:09;100575.88;;;25.23;57.47
42125;BME280;27787;44.594;11.046;2022-08-21T08:52:03;100575.28;;;25.34;57.15
42125;BME280;27787;44.594;11.046;2022-08-21T08:54:50;100570.06;;;25.31;57.01
42125;BME280;27787;44.594;11.046;2022-08-21T08:57:35;100575.81;;;25.41;57.02
42125;BME280;27787;44.594;11.046;2022-08-21T09:00:21;100569.88;;;25.34;57.11
42125;BME280;27787;44.594;11.046;2022-08-21T09:03:05;100570.91;;;25.47;57.00
42125;BME280;27787;44.594;11.046;2022-08-21T09:11:48;100564.09;;;25.56;56.29
42125;BME280;27787;44.594;11.046;2022-08-21T09:17:36;100567.41;;;25.61;55.44
42125;BME280;27787;44.594;11.046;2022-08-21T09:26:36;100557.38;;;25.63;55.40
42125;BME280;27787;44.594;11.046;2022-08-21T09:29:25;100553.47;;;25.69;55.31
42125;BME280;27787;44.594;11.046;2022-08-21T09:32:20;100564.44;;;25.81;54.10
42125;BME280;27787;44.594;11.046;2022-08-21T09:40:36;100549.94;;;26.12;53.40
42125;BME280;27787;44.594;11.046;2022-08-21T09:43:22;100544.19;;;26.19;53.17
42125;BME280;27787;44.594;11.046;2022-08-21T09:46:19;100536.06;;;26.19;53.81
42125;BME280;27787;44.594;11.046;2022-08-21T09:49:03;100532.88;;;26.26;54.63
42125;BME280;27787;44.594;11.046;2022-08-21T09:51:50;100534.97;;;26.37;54.92
42125;BME280;27787;44.594;11.046;2022-08-21T09:54:37;100519.69;;;26.36;55.36
42125;BME280;27787;44.594;11.046;2022-08-21T09:57:26;100524.66;;;26.28;55.40
42125;BME280;27787;44.594;11.046;2022-08-21T10:00:27;100523.59;;;26.30;54.26
42125;BME280;27787;44.594;11.046;2022-08-21T10:03:20;100518.50;;;26.40;53.21
42125;BME280;27787;44.594;11.046;2022-08-21T10:06:06;100516.97;;;26.36;52.97
42125;BME280;27787;44.594;11.046;2022-08-21T10:09:11;100510.00;;;26.32;52.81
42125;BME280;27787;44.594;11.046;2022-08-21T10:12:05;100513.81;;;26.28;53.44
42125;BME280;27787;44.594;11.046;2022-08-21T10:15:00;100509.78;;;26.21;52.66
42125;BME280;27787;44.594;11.046;2022-08-21T10:20:40;100501.59;;;26.36;53.98
42125;BME280;27787;44.594;11.046;2022-08-21T10:26:37;100501.06;;;26.30;53.40
42125;BME280;27787;44.594;11.046;2022-08-21T10:29:47;100498.28;;;26.31;53.61
42125;BME280;27787;44.594;11.046;2022-08-21T10:32:37;100496.72;;;26.27;53.45
42125;BME280;27787;44.594;11.046;2022-08-21T10:35:26;100495.09;;;26.25;53.67
42125;BME280;27787;44.594;11.046;2022-08-21T10:47:20;100481.66;;;26.80;55.35
42125;BME280;27787;44.594;11.046;2022-08-21T10:55:56;100477.22;;;26.79;54.10
42125;BME280;27787;44.594;11.046;2022-08-21T11:05:00;100470.63;;;26.97;51.03
42125;BME280;27787;44.594;11.046;2022-08-21T11:07:51;100468.59;;;27.01;51.54
42125;BME280;27787;44.594;11.046;2022-08-21T11:10:42;100472.25;;;27.00;51.16
42125;BME280;27787;44.594;11.046;2022-08-21T11:19:08;100449.44;;;26.90;52.22
42125;BME280;27787;44.594;11.046;2022-08-21T11:25:05;100447.47;;;26.92;51.42
42125;BME280;27787;44.594;11.046;2022-08-21T11:27:55;100442.53;;;26.98;50.36
42125;BME280;27787;44.594;11.046;2022-08-21T11:30:48;100437.88;;;27.00;50.46
42125;BME280;27787;44.594;11.046;2022-08-21T11:33:41;100437.81;;;27.02;49.79
42125;BME280;27787;44.594;11.046;2022-08-21T11:44:56;100432.94;;;27.07;48.36
42125;BME280;27787;44.594;11.046;2022-08-21T11:47:53;100433.22;;;27.17;46.02
42125;BME280;27787;44.594;11.046;2022-08-21T11:50:38;100426.44;;;27.24;44.18
42125;BME280;27787;44.594;11.046;2022-08-21T11:53:26;100423.06;;;27.33;42.45
42125;BME280;27787;44.594;11.046;2022-08-21T11:56:21;100419.81;;;27.28;43.34
42125;BME280;27787;44.594;11.046;2022-08-21T11:59:07;100423.06;;;27.33;44.98
42125;BME280;27787;44.594;11.046;2022-08-21T12:01:53;100422.03;;;27.36;45.07
42125;BME280;27787;44.594;11.046;2022-08-21T12:04:42;100427.44;;;27.36;45.08
42125;BME280;27787;44.594;11.046;2022-08-21T12:07:36;100425.78;;;27.33;45.58
42125;BME280;27787;44.594;11.046;2022-08-21T12:10:30;100415.72;;;27.35;45.02
42125;BME280;27787;44.594;11.046;2022-08-21T12:13:22;100423.53;;;27.40;45.22
42125;BME280;27787;44.594;11.046;2022-08-21T12:18:51;100417.94;;;27.55;44.69
42125;BME280;27787;44.594;11.046;2022-08-21T12:21:53;100409.47;;;27.60;44.88
42125;BME280;27787;44.594;11.046;2022-08-21T12:24:40;100412.19;;;27.60;45.29
42125;BME280;27787;44.594;11.046;2022-08-21T12:27:29;100404.47;;;27.54;45.12
42125;BME280;27787;44.594;11.046;2022-08-21T12:36:09;100393.91;;;27.76;44.20
42125;BME280;27787;44.594;11.046;2022-08-21T12:41:43;100390.34;;;28.01;42.73
42125;BME280;27787;44.594;11.046;2022-08-21T12:44:33;100384.34;;;28.09;42.69
42125;BME280;27787;44.594;11.046;2022-08-21T12:47:27;100390.34;;;28.14;42.03
42125;BME280;27787;44.594;11.046;2022-08-21T12:50:13;100380.78;;;28.08;42.32
42125;BME280;27787;44.594;11.046;2022-08-21T12:53:06;100371.88;;;28.06;41.72
42125;BME280;27787;44.594;11.046;2022-08-21T12:55:51;100376.56;;;28.04;42.08
42125;BME280;27787;44.594;11.046;2022-08-21T12:58:35;100376.66;;;28.15;41.76
42125;BME280;27787;44.594;11.046;2022-08-21T13:01:24;100369.38;;;28.16;41.71
42125;BME280;27787;44.594;11.046;2022-08-21T13:04:10;100360.78;;;28.09;42.18
42125;BME280;27787;44.594;11.046;2022-08-21T13:06:55;100364.25;;;28.24;41.20
42125;BME280;27787;44.594;11.046;2022-08-21T13:12:59;100349.31;;;28.06;41.86
42125;BME280;27787;44.594;11.046;2022-08-21T13:15:43;100342.56;;;27.99;42.50
42125;BME280;27787;44.594;11.046;2022-08-21T13:18:28;100342.03;;;28.06;41.11
42125;BME280;27787;44.594;11.046;2022-08-21T13:21:14;100342.34;;;28.40;39.64
42125;BME280;27787;44.594;11.046;2022-08-21T13:27:01;100336.63;;;28.56;39.52
42125;BME280;27787;44.594;11.046;2022-08-21T13:29:45;100330.66;;;28.74;38.84
42125;BME280;27787;44.594;11.046;2022-08-21T13:32:31;100326.28;;;28.85;39.32
42125;BME280;27787;44.594;11.046;2022-08-21T13:35:18;100320.41;;;28.91;39.19
42125;BME280;27787;44.594;11.046;2022-08-21T13:38:03;100320.72;;;28.86;39.61
42125;BME280;27787;44.594;11.046;2022-08-21T13:40:51;100312.38;;;28.89;39.66
42125;BME280;27787;44.594;11.046;2022-08-21T13:43:36;100314.94;;;29.15;39.09
42125;BME280;27787;44.594;11.046;2022-08-21T13:46:21;100303.25;;;29.25;38.81
42125;BME280;27787;44.594;11.046;2022-08-21T13:49:06;100305.84;;;29.27;39.72
42125;BME280;27787;44.594;11.046;2022-08-21T13:51:51;100303.38;;;29.24;39.09
42125;BME280;27787;44.594;11.046;2022-08-21T13:54:38;100300.53;;;29.25;38.87
42125;BME280;27787;44.594;11.046;2022-08-21T13:57:29;100299.53;;;29.26;39.48
42125;BME280;27787;44.594;11.046;2022-08-21T14:03:03;100303.75;;;29.42;38.70
42125;BME280;27787;44.594;11.046;2022-08-21T14:05:49;100291.13;;;29.76;36.79
42125;BME280;27787;44.594;11.046;2022-08-21T14:08:35;100294.59;;;29.89;35.60
42125;BME280;27787;44.594;11.046;2022-08-21T14:11:19;100301.03;;;29.88;37.13
42125;BME280;27787;44.594;11.046;2022-08-21T14:14:05;100296.31;;;29.90;35.65
42125;BME280;27787;44.594;11.046;2022-08-21T14:16:53;100290.38;;;30.07;34.70
42125;BME280;27787;44.594;11.046;2022-08-21T14:19:39;100291.63;;;30.26;34.77
42125;BME280;27787;44.594;11.046;2022-08-21T14:22:41;100287.91;;;30.27;34.94
42125;BME280;27787;44.594;11.046;2022-08-21T14:25:36;100282.00;;;30.21;35.50
42125;BME280;27787;44.594;11.046;2022-08-21T14:28:24;100282.84;;;30.22;35.96
42125;BME280;27787;44.594;11.046;2022-08-21T14:31:16;100279.47;;;30.30;35.62
42125;BME280;27787;44.594;11.046;2022-08-21T14:34:01;100279.13;;;30.34;35.78
42125;BME280;27787;44.594;11.046;2022-08-21T14:36:45;100273.72;;;30.55;34.62
42125;BME280;27787;44.594;11.046;2022-08-21T14:39:30;100278.56;;;30.63;34.74
42125;BME280;27787;44.594;11.046;2022-08-21T14:42:14;100270.38;;;30.74;34.61
42125;BME280;27787;44.594;11.046;2022-08-21T14:44:59;100268.38;;;30.76;34.55
42125;BME280;27787;44.594;11.046;2022-08-21T14:47:44;100264.50;;;30.78;35.28
42125;BME280;27787;44.594;11.046;2022-08-21T14:50:28;100267.75;;;30.72;36.01
42125;BME280;27787;44.594;11.046;2022-08-21T14:53:12;100258.09;;;30.57;36.13
42125;BME280;27787;44.594;11.046;2022-08-21T14:55:56;100270.25;;;30.53;36.78
42125;BME280;27787;44.594;11.046;2022-08-21T14:58:50;100259.22;;;30.54;36.69
42125;BME280;27787;44.594;11.046;2022-08-21T15:01:36;100264.41;;;30.58;36.71
42125;BME280;27787;44.594;11.046;2022-08-21T15:04:21;100262.28;;;30.72;36.57
42125;BME280;27787;44.594;11.046;2022-08-21T15:07:04;100256.59;;;30.75;36.18
42125;BME280;27787;44.594;11.046;2022-08-21T15:09:48;100264.25;;;30.81;36.43
42125;BME280;27787;44.594;11.046;2022-08-21T15:12:32;100256.97;;;31.03;36.31
42125;BME280;27787;44.594;11.046;2022-08-21T15:15:16;100270.19;;;31.07;36.38
42125;BME280;27787;44.594;11.046;2022-08-21T15:18:00;100258.41;;;31.07;36.66
42125;BME280;27787;44.594;11.046;2022-08-21T15:20:44;100263.09;;;31.16;35.69
42125;BME280;27787;44.594;11.046;2022-08-21T15:23:28;100262.22;;;31.36;35.19
42125;BME280;27787;44.594;11.046;2022-08-21T15:26:12;100265.66;;;31.29;35.66
42125;BME280;27787;44.594;11.046;2022-08-21T15:28:58;100261.06;;;31.29;35.57
42125;BME280;27787;44.594;11.046;2022-08-21T15:32:15;100254.72;;;31.29;35.35
42125;BME280;27787;44.594;11.046;2022-08-21T15:34:46;100263.56;;;31.21;35.85
42125;BME280;27787;44.594;11.046;2022-08-21T15:37:31;100261.50;;;31.14;36.07
42125;BME280;27787;44.594;11.046;2022-08-21T15:40:15;100255.47;;;30.99;35.77
42125;BME280;27787;44.594;11.046;2022-08-21T15:43:00;100258.00;;;30.91;36.55
42125;BME280;27787;44.594;11.046;2022-08-21T15:45:44;100253.94;;;30.85;35.91
42125;BME280;27787;44.594;11.046;2022-08-21T15:48:29;100255.75;;;30.75;36.83